Time;durP1;ratioP1;P1;durP2;ratioP2;P2;SDS_P1;SDS_P2;PMS_P1;PMS_P2;Temp;Humidity;BMP_temperature;BMP_pressure;BME280_temperature;BME280_humidity;BME280_pressure;Samples;Min_cycle;Max_cycle;Signal;HPM_P1;HPM_P2
2023/03/01 00:01:31;;;;;;;9.43;5.93;;;;;;;-1.28;65.97;103021.50;5042899;28;20074;-70
2023/03/01 00:03:59;;;;;;;7.60;6.30;;;;;;;-1.34;66.48;103022.03;5050154;28;20092;-70
2023/03/01 00:06:27;;;;;;;8.68;5.95;;;;;;;-1.33;67.15;103026.41;5043757;28;20065;-70
2023/03/01 00:08:55;;;;;;;9.38;5.60;;;;;;;-1.33;67.08;103021.25;5027241;28;20181;-70
2023/03/01 00:11:29;;;;;;;9.38;5.32;;;;;;;-1.41;67.04;103028.59;5040913;28;20104;-70
2023/03/01 00:14:04;;;;;;;8.50;5.75;;;;;;;-1.51;66.99;103028.00;5012862;28;20129;-70
2023/03/01 00:16:39;;;;;;;8.52;6.75;;;;;;;-1.64;67.02;103023.88;5052419;28;20046;-71
2023/03/01 00:19:09;;;;;;;6.80;5.50;;;;;;;-1.76;66.67;103019.78;5047655;28;20044;-71
2023/03/01 00:21:36;;;;;;;8.82;5.38;;;;;;;-1.83;67.33;103028.00;5046220;28;20103;-70
2023/03/01 00:24:04;;;;;;;8.93;5.47;;;;;;;-1.82;67.94;103024.59;5047524;28;20053;-70
2023/03/01 00:26:31;;;;;;;7.75;5.45;;;;;;;-1.82;68.03;103013.38;5059759;28;20773;-70
2023/03/01 00:29:00;;;;;;;7.72;5.97;;;;;;;-1.79;68.25;103017.03;5042544;28;20034;-70
2023/03/01 00:31:31;;;;;;;8.75;6.25;;;;;;;-1.70;68.66;103011.47;5039464;28;20176;-70
2023/03/01 00:34:02;;;;;;;9.13;5.43;;;;;;;-1.70;68.23;103011.47;5037298;28;20804;-70
2023/03/01 00:36:34;;;;;;;8.52;5.05;;;;;;;-1.73;68.30;103003.53;5038812;28;20044;-70
2023/03/01 00:39:05;;;;;;;7.97;5.07;;;;;;;-1.79;68.21;103006.69;5028097;28;20089;-71
2023/03/01 00:41:34;;;;;;;9.27;5.80;;;;;;;-1.87;68.42;103001.06;5027284;28;22021;-71
2023/03/01 00:44:01;;;;;;;8.75;5.57;;;;;;;-1.91;68.20;103003.41;5031036;28;20557;-71
2023/03/01 00:46:30;;;;;;;10.13;5.90;;;;;;;-1.98;68.29;103003.88;5040607;28;20124;-70
2023/03/01 00:48:57;;;;;;;8.15;5.25;;;;;;;-2.06;68.51;102983.66;5042653;28;20042;-70
2023/03/01 00:51:27;;;;;;;10.05;5.85;;;;;;;-2.04;69.01;103005.31;5044425;28;20037;-70
2023/03/01 00:54:01;;;;;;;9.85;5.97;;;;;;;-2.00;69.30;102990.88;5024682;28;20038;-70
2023/03/01 00:56:29;;;;;;;9.27;5.90;;;;;;;-1.97;69.13;102993.59;5037626;28;20072;-70
2023/03/01 00:58:57;;;;;;;10.05;5.53;;;;;;;-1.99;69.27;102997.84;5028188;28;20037;-70
2023/03/01 01:01:31;;;;;;;12.13;5.63;;;;;;;-1.99;69.31;102989.16;5039221;28;20038;-70
2023/03/01 01:04:07;;;;;;;;;;;;;;;-1.99;69.29;102995.25;5029810;28;20040;-70
2023/03/01 01:06:42;;;;;;;8.43;4.60;;;;;;;-1.98;69.29;102991.81;5049585;28;19929;-71
2023/03/01 01:09:17;;;;;;;8.00;5.35;;;;;;;-1.98;69.38;102983.19;5041959;28;20123;-70
2023/03/01 01:11:48;;;;;;;7.50;5.25;;;;;;;-1.97;69.57;102988.44;5035280;28;20045;-70
2023/03/01 01:14:16;;;;;;;8.30;5.40;;;;;;;-1.97;69.83;102975.50;5044709;28;20567;-70
2023/03/01 01:16:44;;;;;;;9.85;5.57;;;;;;;-1.95;70.02;102970.44;5038431;28;20514;-70
2023/03/01 01:19:11;;;;;;;9.43;5.43;;;;;;;-1.93;70.30;102973.97;5036906;28;20065;-70
2023/03/01 01:21:38;;;;;;;10.82;6.00;;;;;;;-1.97;69.95;102962.59;5024970;28;20065;-70
2023/03/01 01:24:06;;;;;;;8.82;5.90;;;;;;;-2.00;69.97;102958.94;5034945;28;20045;-70
2023/03/01 01:26:34;;;;;;;8.63;5.70;;;;;;;-2.10;69.77;102961.03;5036396;28;20116;-71
2023/03/01 01:29:04;;;;;;;8.60;5.20;;;;;;;-2.15;70.16;102956.41;5033197;28;20616;-72
2023/03/01 01:31:34;;;;;;;7.57;5.30;;;;;;;-2.17;70.33;102952.81;5019726;28;20040;-71
2023/03/01 01:34:05;;;;;;;9.30;5.38;;;;;;;-2.19;70.26;102953.63;5042905;28;20103;-72
2023/03/01 01:36:33;;;;;;;11.45;6.07;;;;;;;-2.18;70.79;102951.94;5040310;28;20033;-71
2023/03/01 01:39:01;;;;;;;9.52;5.47;;;;;;;-2.18;70.52;102941.63;5038417;28;20525;-71
2023/03/01 01:41:29;;;;;;;8.23;5.13;;;;;;;-2.14;70.75;102946.16;5044436;28;20617;-71
2023/03/01 01:44:23;;;;;;;8.77;5.35;;;;;;;-2.07;71.06;102937.03;5031463;28;20040;-71
2023/03/01 01:46:58;;;;;;;8.60;5.70;;;;;;;-2.01;71.05;102932.22;5046424;28;20937;-71
2023/03/01 01:49:36;;;;;;;7.78;5.22;;;;;;;-2.00;70.84;102931.41;5049008;28;20564;-72
2023/03/01 01:52:16;;;;;;;7.38;5.45;;;;;;;-2.05;70.75;102930.25;5032530;28;20037;-71
2023/03/01 01:55:01;;;;;;;7.50;5.35;;;;;;;-2.09;70.87;102933.50;5045324;28;20488;-71
2023/03/01 01:57:53;;;;;;;9.55;4.95;;;;;;;-2.13;71.17;102929.81;5034351;28;20056;-70
2023/03/01 02:00:25;;;;;;;8.00;5.10;;;;;;;-2.19;70.96;102932.94;5027586;28;20048;-71
2023/03/01 02:03:00;;;;;;;8.93;5.70;;;;;;;-2.25;71.19;102932.63;5034970;28;20045;-70
2023/03/01 02:05:43;;;;;;;10.68;5.68;;;;;;;-2.28;71.36;102936.72;5031499;28;20037;-70
2023/03/01 02:08:13;;;;;;;8.15;5.00;;;;;;;-2.29;71.55;102933.25;5040198;28;20127;-70
2023/03/01 02:10:42;;;;;;;10.27;5.20;;;;;;;-2.32;71.61;102938.25;5035589;28;20056;-70
2023/03/01 02:13:11;;;;;;;13.23;5.80;;;;;;;-2.38;71.88;102933.63;5036080;28;20489;-70
2023/03/01 02:15:41;;;;;;;9.40;5.93;;;;;;;-2.44;71.86;102938.44;5036888;28;20135;-70
2023/03/01 02:18:11;;;;;;;10.32;5.85;;;;;;;-2.48;72.31;102939.09;5035139;28;20081;-70
2023/03/01 02:21:28;;;;;;;7.70;5.28;;;;;;;-2.47;72.61;102942.53;5042631;28;20164;-69
2023/03/01 02:23:57;;;;;;;8.80;5.38;;;;;;;-2.48;72.77;102939.09;5028172;28;20134;-69
2023/03/01 02:26:42;;;;;;;10.00;5.40;;;;;;;-2.51;72.63;102939.81;5039805;28;20038;-69
2023/03/01 02:29:09;;;;;;;8.65;5.18;;;;;;;-2.55;73.02;102931.78;5046623;28;20053;-70
2023/03/01 02:31:41;;;;;;;9.50;5.32;;;;;;;-2.58;72.95;102923.84;5027358;28;20037;-70
2023/03/01 02:34:22;;;;;;;9.60;6.57;;;;;;;-2.61;73.43;102934.91;5038934;28;20048;-70
2023/03/01 02:37:00;;;;;;;10.95;6.10;;;;;;;-2.64;73.23;102926.97;5045890;28;20041;-70
2023/03/01 02:39:34;;;;;;;9.88;5.03;;;;;;;-2.67;73.44;102921.63;5058053;28;20042;-70
2023/03/01 02:42:04;;;;;;;10.70;6.22;;;;;;;-2.69;73.84;102912.88;5033939;28;20736;-70
2023/03/01 02:44:31;;;;;;;8.80;5.80;;;;;;;-2.69;73.82;102924.13;5043053;28;20052;-70
2023/03/01 02:47:03;;;;;;;11.20;6.00;;;;;;;-2.69;74.34;102911.22;5049491;28;20037;-72
2023/03/01 02:49:36;;;;;;;9.10;5.50;;;;;;;-2.69;74.21;102913.81;5034073;28;20434;-70
2023/03/01 02:52:48;;;;;;;8.35;5.40;;;;;;;-2.70;74.37;102921.47;5057015;28;20049;-70
2023/03/01 02:55:18;;;;;;;6.93;4.90;;;;;;;-2.74;74.36;102919.50;5043963;28;20566;-70
2023/03/01 02:57:50;;;;;;;8.07;5.18;;;;;;;-2.76;74.72;102916.84;5025800;28;20109;-70
2023/03/01 03:00:28;;;;;;;10.50;5.35;;;;;;;-2.75;74.91;102921.19;5045959;28;20066;-71
2023/03/01 03:02:56;;;;;;;9.77;5.03;;;;;;;-2.77;74.68;102929.63;5040208;28;20053;-70
2023/03/01 03:05:30;;;;;;;10.48;5.80;;;;;;;-2.82;74.85;102925.13;5044194;28;20060;-71
2023/03/01 03:08:00;;;;;;;8.48;5.50;;;;;;;-2.85;74.56;102917.19;5042316;28;20578;-70
2023/03/01 03:10:39;;;;;;;9.35;5.65;;;;;;;-2.86;75.10;102914.53;5030821;28;20038;-70
2023/03/01 03:13:14;;;;;;;9.65;5.78;;;;;;;-2.86;75.14;102922.28;5029405;28;20116;-70
2023/03/01 03:15:43;;;;;;;9.38;5.57;;;;;;;-2.88;75.20;102917.00;5029461;28;20138;-70
2023/03/01 03:18:17;;;;;;;9.80;5.45;;;;;;;-2.91;75.22;102914.25;5036721;28;20054;-70
2023/03/01 03:20:45;;;;;;;8.40;5.25;;;;;;;-2.90;75.59;102913.44;5030565;28;20049;-70
2023/03/01 03:23:13;;;;;;;8.82;6.05;;;;;;;-2.90;75.40;102920.28;5049061;28;20594;-70
2023/03/01 03:25:40;;;;;;;9.68;6.05;;;;;;;-2.92;75.45;102920.22;5034371;28;20042;-70
2023/03/01 03:28:10;;;;;;;10.95;5.57;;;;;;;-2.93;75.45;102917.53;5058571;28;20041;-70
2023/03/01 03:30:40;;;;;;;13.40;5.72;;;;;;;-2.96;75.68;102920.81;5034659;28;20082;-70
2023/03/01 03:33:09;;;;;;;9.57;5.75;;;;;;;-3.01;75.62;102915.38;5031088;28;20038;-70
2023/03/01 03:35:49;;;;;;;10.32;5.93;;;;;;;-3.02;75.93;102918.78;5044305;28;20048;-70
2023/03/01 03:38:21;;;;;;;10.35;6.57;;;;;;;-3.05;75.89;102908.25;5035661;28;20117;-70
2023/03/01 03:41:03;;;;;;;12.35;6.13;;;;;;;-3.07;76.04;102911.56;5028667;28;20414;-70
2023/03/01 03:43:34;;;;;;;11.88;6.68;;;;;;;-3.09;76.12;102906.31;5035191;28;20049;-70
2023/03/01 03:46:05;;;;;;;11.30;6.32;;;;;;;-3.09;76.23;102907.97;5045240;28;20846;-70
2023/03/01 03:48:40;;;;;;;8.48;5.88;;;;;;;-3.06;76.06;102910.75;5048741;28;20033;-71
2023/03/01 03:51:11;;;;;;;11.60;6.28;;;;;;;-3.04;76.60;102907.47;5044960;28;20121;-70
2023/03/01 03:53:38;;;;;;;11.65;6.78;;;;;;;-3.08;76.50;102899.44;5029959;28;20449;-70
2023/03/01 03:56:06;;;;;;;10.82;6.28;;;;;;;-3.13;76.30;102899.19;5038964;28;20533;-70
2023/03/01 03:58:33;;;;;;;8.50;6.15;;;;;;;-3.16;76.26;102897.31;5032973;28;20030;-71
2023/03/01 04:01:01;;;;;;;13.40;6.13;;;;;;;-3.18;76.32;102903.19;5048432;28;20042;-70
2023/03/01 04:03:31;;;;;;;9.15;6.60;;;;;;;-3.22;76.38;102896.97;5045433;28;20055;-70
2023/03/01 04:06:00;;;;;;;8.20;5.68;;;;;;;-3.24;76.59;102895.97;5033762;28;20549;-70
2023/03/01 04:08:28;;;;;;;9.80;6.38;;;;;;;-3.23;76.71;102899.44;5034093;28;20025;-71
2023/03/01 04:13:53;;;;;;;13.43;6.85;;;;;;;-3.29;76.52;102887.97;5033982;28;20304;-71
2023/03/01 04:16:21;;;;;;;9.77;6.43;;;;;;;-3.38;76.44;102886.50;5045931;28;20038;-71
2023/03/01 04:18:49;;;;;;;10.95;6.57;;;;;;;-3.41;76.74;102889.81;5044981;28;20042;-71
2023/03/01 04:21:16;;;;;;;9.60;6.32;;;;;;;-3.42;76.95;102890.59;5046804;28;20099;-71
2023/03/01 04:23:43;;;;;;;10.90;6.65;;;;;;;-3.42;76.76;102889.72;5044115;28;20048;-70
2023/03/01 04:26:10;;;;;;;9.23;6.78;;;;;;;-3.48;76.73;102883.38;5054224;28;20854;-71
2023/03/01 04:28:45;;;;;;;11.15;6.93;;;;;;;-3.53;76.92;102881.31;5044171;28;20046;-71
2023/03/01 04:31:18;;;;;;;10.68;6.70;;;;;;;-3.58;76.88;102878.47;5027732;28;20125;-70
2023/03/01 04:33:51;;;;;;;12.15;6.65;;;;;;;-3.63;76.70;102874.72;5030775;28;20073;-71
2023/03/01 04:36:22;;;;;;;12.50;6.68;;;;;;;-3.67;76.91;102867.59;5042983;28;20056;-71
2023/03/01 04:38:50;;;;;;;12.80;6.97;;;;;;;-3.73;77.36;102862.94;5033577;28;20046;-70
2023/03/01 04:41:19;;;;;;;11.82;7.18;;;;;;;-3.74;77.69;102858.59;5042728;28;20042;-71
2023/03/01 04:43:46;;;;;;;13.45;7.25;;;;;;;-3.73;77.59;102864.66;5049842;28;20484;-70
2023/03/01 04:46:17;;;;;;;9.60;6.60;;;;;;;-3.69;78.21;102869.19;5048274;28;20041;-70
2023/03/01 04:48:47;;;;;;;10.82;7.38;;;;;;;-3.70;78.30;102872.56;5030914;28;20050;-70
2023/03/01 04:51:15;;;;;;;11.52;6.90;;;;;;;-3.71;78.80;102873.38;5043971;28;20044;-70
2023/03/01 04:53:43;;;;;;;11.60;6.88;;;;;;;-3.74;78.38;102858.59;5050029;28;20042;-71
2023/03/01 04:56:13;;;;;;;11.80;6.38;;;;;;;-3.73;78.44;102867.22;5028125;28;20128;-71
2023/03/01 04:58:41;;;;;;;11.10;6.90;;;;;;;-3.77;78.54;102859.31;5041901;28;20046;-70
2023/03/01 05:01:20;;;;;;;9.77;6.45;;;;;;;-3.79;78.55;102854.84;5044690;28;20048;-70
2023/03/01 05:03:50;;;;;;;13.27;7.55;;;;;;;-3.81;78.75;102859.03;5025834;28;20046;-71
2023/03/01 05:06:19;;;;;;;12.95;6.93;;;;;;;-3.81;78.68;102859.91;5034233;28;20044;-71
2023/03/01 05:08:46;;;;;;;10.90;7.18;;;;;;;-3.81;78.76;102853.88;5027832;28;20038;-71
2023/03/01 05:11:14;;;;;;;12.98;6.97;;;;;;;-3.81;79.04;102848.72;5034333;28;20034;-71
2023/03/01 05:13:41;;;;;;;11.70;6.72;;;;;;;-3.81;78.53;102851.28;5034793;28;20108;-70
2023/03/01 05:16:10;;;;;;;11.73;7.22;;;;;;;-3.84;78.08;102846.84;5049196;28;20045;-71
2023/03/01 05:18:40;;;;;;;10.82;7.15;;;;;;;-3.89;78.20;102853.38;5036221;28;20137;-70
2023/03/01 05:21:13;;;;;;;15.55;7.18;;;;;;;-3.95;77.96;102853.91;5033270;28;20553;-70
2023/03/01 05:23:40;;;;;;;10.15;6.78;;;;;;;-4.01;77.62;102843.22;5032737;28;20548;-70
2023/03/01 05:26:08;;;;;;;13.18;7.38;;;;;;;-4.08;77.94;102835.91;5043801;28;20541;-70
2023/03/01 05:28:58;;;;;;;10.32;6.60;;;;;;;-4.07;78.23;102840.28;5039263;28;20049;-70
2023/03/01 05:31:26;;;;;;;9.15;6.15;;;;;;;-4.06;78.46;102839.47;5044659;28;20547;-70
2023/03/01 05:33:53;;;;;;;12.20;6.97;;;;;;;-3.99;79.16;102835.56;5036480;28;20044;-72
2023/03/01 05:36:20;;;;;;;11.82;7.20;;;;;;;-3.98;79.15;102825.38;5039105;28;20041;-70
2023/03/01 05:38:47;;;;;;;13.15;6.65;;;;;;;-4.03;78.81;102825.91;5042790;28;20555;-70
2023/03/01 05:41:16;;;;;;;12.40;7.07;;;;;;;-4.10;78.42;102820.34;5038978;28;20409;-69
2023/03/01 05:43:44;;;;;;;11.50;7.45;;;;;;;-4.16;78.58;102822.56;5019898;28;20052;-69
2023/03/01 05:46:13;;;;;;;13.27;6.88;;;;;;;-4.18;78.75;102815.53;5022843;28;20087;-71
2023/03/01 05:48:40;;;;;;;10.68;7.05;;;;;;;-4.22;78.95;102820.50;5039697;28;20931;-70
2023/03/01 05:51:07;;;;;;;11.80;7.18;;;;;;;-4.14;80.96;102810.66;5040724;28;20037;-70
2023/03/01 05:53:34;;;;;;;15.75;6.93;;;;;;;-3.76;84.62;102812.09;5053726;28;20042;-71
2023/03/01 05:56:06;;;;;;;13.77;7.72;;;;;;;-3.31;86.08;102819.03;5040360;28;20548;-71
2023/03/01 05:58:33;;;;;;;11.35;6.35;;;;;;;-3.13;85.18;102824.34;5058178;28;20042;-70
2023/03/01 06:01:00;;;;;;;13.05;6.82;;;;;;;-3.03;84.16;102815.47;5042116;28;20120;-70
2023/03/01 06:03:27;;;;;;;13.73;7.50;;;;;;;-2.95;83.36;102815.91;5040511;28;20049;-69
2023/03/01 06:05:58;;;;;;;10.80;7.00;;;;;;;-2.85;83.24;102816.50;5041147;28;20116;-68
2023/03/01 06:08:26;;;;;;;14.00;8.30;;;;;;;-2.77;83.07;102829.84;5040678;28;20041;-68
2023/03/01 06:10:54;;;;;;;16.38;7.63;;;;;;;-2.66;83.03;102822.69;5041491;28;20124;-70
2023/03/01 06:13:23;;;;;;;13.75;7.57;;;;;;;-2.38;84.13;102822.53;5043666;28;20037;-69
2023/03/01 06:15:50;;;;;;;16.42;8.00;;;;;;;-2.04;83.43;102826.06;5045478;28;20580;-69
2023/03/01 06:18:17;;;;;;;9.75;6.57;;;;;;;-2.06;80.47;102819.91;5047474;28;20124;-69
2023/03/01 06:20:45;;;;;;;11.77;7.80;;;;;;;-2.18;79.18;102822.72;5042527;28;20042;-69
2023/03/01 06:23:11;;;;;;;8.77;6.57;;;;;;;-2.41;77.89;102819.78;5031941;28;20042;-69
2023/03/01 06:25:38;;;;;;;10.23;6.15;;;;;;;-2.60;77.66;102815.31;5030238;28;20040;-69
2023/03/01 06:28:05;;;;;;;10.10;6.78;;;;;;;-2.77;77.81;102822.09;5034924;28;20128;-69
2023/03/01 06:30:32;;;;;;;11.93;6.70;;;;;;;-2.76;78.17;102818.72;5042141;28;20057;-69
2023/03/01 06:33:02;;;;;;;13.82;7.60;;;;;;;-2.87;77.43;102810.34;5039113;28;20037;-68
2023/03/01 06:35:30;;;;;;;9.93;6.60;;;;;;;-3.01;77.62;102817.31;5040523;28;20030;-68
2023/03/01 06:38:00;;;;;;;10.75;6.93;;;;;;;-3.12;77.64;102810.63;5042400;28;20045;-68
2023/03/01 06:40:29;;;;;;;13.93;7.43;;;;;;;-3.25;77.73;102824.53;5052028;28;20458;-68
2023/03/01 06:42:57;;;;;;;12.02;6.65;;;;;;;-3.35;77.76;102824.78;5040000;28;20089;-68
2023/03/01 06:45:25;;;;;;;11.07;7.00;;;;;;;-3.35;78.25;102822.22;5044471;28;20038;-70
2023/03/01 06:47:52;;;;;;;11.05;6.88;;;;;;;-3.34;78.48;102814.56;5043678;28;20429;-67
2023/03/01 06:50:19;;;;;;;11.20;7.32;;;;;;;-3.28;78.40;102817.50;5045049;28;20372;-71
2023/03/01 06:52:46;;;;;;;9.85;5.80;;;;;;;-3.21;78.56;102813.59;5046221;28;20041;-70
2023/03/01 06:55:13;;;;;;;11.80;7.13;;;;;;;-3.17;78.59;102805.22;5044444;28;20040;-68
2023/03/01 06:57:40;;;;;;;13.07;7.28;;;;;;;-3.10;78.22;102803.00;5043720;28;20116;-68
2023/03/01 07:00:08;;;;;;;13.55;7.75;;;;;;;-3.03;78.21;102800.84;5049005;28;20172;-68
2023/03/01 07:02:35;;;;;;;13.13;6.88;;;;;;;-2.95;78.05;102800.41;5060309;28;20038;-69
2023/03/01 07:05:03;;;;;;;9.98;6.57;;;;;;;-2.88;77.96;102800.81;5042611;28;20910;-69
2023/03/01 07:07:30;;;;;;;10.55;6.90;;;;;;;-2.81;77.70;102800.38;5046592;28;20161;-69
2023/03/01 07:09:57;;;;;;;12.75;6.90;;;;;;;-2.72;77.39;102804.28;5061640;28;20038;-69
2023/03/01 07:12:24;;;;;;;12.15;6.85;;;;;;;-2.69;77.39;102815.66;5046306;28;20033;-68
2023/03/01 07:14:51;;;;;;;11.05;7.00;;;;;;;-2.59;77.32;102811.88;5040134;28;20065;-68
2023/03/01 07:17:19;;;;;;;9.82;6.57;;;;;;;-2.48;76.82;102812.50;5034389;28;20528;-69
2023/03/01 07:19:46;;;;;;;11.13;7.05;;;;;;;-2.41;76.49;102817.19;5039895;28;20037;-70
2023/03/01 07:22:13;;;;;;;11.63;7.05;;;;;;;-2.31;76.42;102820.28;5044665;28;20865;-70
2023/03/01 07:24:41;;;;;;;11.05;6.97;;;;;;;-2.25;76.11;102820.63;5043230;28;20107;-68
2023/03/01 07:27:10;;;;;;;13.75;7.03;;;;;;;-2.18;75.97;102825.31;5039555;28;20034;-69
2023/03/01 07:29:37;;;;;;;15.25;6.95;;;;;;;-2.10;75.74;102825.72;5049077;28;20515;-68
2023/03/01 07:32:06;;;;;;;10.88;7.28;;;;;;;-2.00;75.49;102827.09;5049505;28;20052;-69
2023/03/01 07:34:33;;;;;;;11.07;6.85;;;;;;;-1.89;75.51;102821.72;5045764;28;20548;-69
2023/03/01 07:37:00;;;;;;;9.85;6.90;;;;;;;-1.80;75.08;102817.84;5043669;28;20104;-69
2023/03/01 07:39:27;;;;;;;12.60;6.95;;;;;;;-1.69;75.13;102815.78;5064568;28;20048;-69
2023/03/01 07:41:54;;;;;;;12.38;7.40;;;;;;;-1.60;74.88;102818.84;5048149;28;20045;-69
2023/03/01 07:44:22;;;;;;;10.77;7.22;;;;;;;-1.48;74.56;102819.50;5048000;28;20153;-69
2023/03/01 07:46:49;;;;;;;11.98;6.28;;;;;;;-1.38;74.20;102818.28;5047981;28;20038;-68
2023/03/01 07:49:16;;;;;;;13.23;7.95;;;;;;;-1.29;74.62;102823.00;5039599;28;20118;-69
2023/03/01 07:51:43;;;;;;;10.98;6.80;;;;;;;-1.19;73.70;102827.84;5041263;28;20124;-69
2023/03/01 07:54:10;;;;;;;11.63;7.28;;;;;;;-1.13;73.64;102819.47;5059327;28;20048;-69
2023/03/01 07:56:37;;;;;;;9.45;6.65;;;;;;;-1.02;73.08;102827.81;5047104;28;20033;-68
2023/03/01 07:59:04;;;;;;;11.73;7.18;;;;;;;-0.93;73.02;102823.06;5048658;28;20796;-68
2023/03/01 08:01:31;;;;;;;13.13;7.65;;;;;;;-0.81;73.08;102831.41;5049265;28;20518;-69
2023/03/01 08:03:58;;;;;;;11.68;7.35;;;;;;;-0.65;72.30;102827.00;5048059;28;20045;-68
2023/03/01 08:06:25;;;;;;;12.10;6.82;;;;;;;-0.55;72.08;102817.94;5048904;28;20112;-68
2023/03/01 08:08:56;;;;;;;10.38;7.43;;;;;;;-0.38;70.96;102826.50;5048745;28;20042;-69
2023/03/01 08:11:23;;;;;;;10.63;6.68;;;;;;;-0.27;70.75;102822.72;5048314;28;20128;-68
2023/03/01 08:13:50;;;;;;;10.48;7.40;;;;;;;-0.14;70.50;102820.69;5063484;28;20568;-69
2023/03/01 08:16:19;;;;;;;9.43;6.90;;;;;;;0.00;69.71;102819.63;5048293;28;20041;-69
2023/03/01 08:18:46;;;;;;;9.43;7.10;;;;;;;0.12;69.73;102819.28;5042161;28;20034;-69
2023/03/01 08:21:17;;;;;;;9.90;7.40;;;;;;;0.25;68.90;102805.13;5030217;28;20042;-68
2023/03/01 08:23:45;;;;;;;10.93;6.88;;;;;;;0.38;68.67;102814.34;5038003;28;20690;-68
2023/03/01 08:26:18;;;;;;;12.45;7.07;;;;;;;0.49;68.67;102805.31;5028909;28;20547;-68
2023/03/01 08:28:47;;;;;;;9.60;6.88;;;;;;;0.64;67.83;102809.41;5041845;28;20046;-69
2023/03/01 08:31:24;;;;;;;9.45;7.00;;;;;;;0.78;66.96;102797.88;5048712;28;20064;-68
2023/03/01 08:33:57;;;;;;;11.63;6.90;;;;;;;0.85;67.23;102805.09;5048786;28;20044;-68
2023/03/01 08:36:31;;;;;;;9.35;6.80;;;;;;;0.97;66.71;102801.25;5045827;28;20040;-68
2023/03/01 08:38:59;;;;;;;8.20;6.40;;;;;;;1.06;66.67;102810.28;5047976;28;20513;-68
2023/03/01 08:41:26;;;;;;;8.63;6.30;;;;;;;1.13;66.55;102800.13;5040733;28;20053;-68
2023/03/01 08:43:58;;;;;;;7.60;6.07;;;;;;;1.27;66.05;102796.38;5045495;28;20087;-69
2023/03/01 08:46:31;;;;;;;9.95;6.18;;;;;;;1.42;64.63;102797.81;5046484;28;20044;-68
2023/03/01 08:48:59;;;;;;;7.75;6.07;;;;;;;1.51;63.82;102793.84;5046091;28;20038;-68
2023/03/01 08:51:26;;;;;;;8.63;5.57;;;;;;;1.61;63.52;102789.91;5047544;28;20088;-68
2023/03/01 08:53:53;;;;;;;8.50;5.93;;;;;;;1.77;62.64;102786.16;5045790;28;20041;-69
2023/03/01 08:56:21;;;;;;;7.25;5.63;;;;;;;1.81;62.47;102782.84;5046138;28;20033;-69
2023/03/01 08:58:48;;;;;;;8.13;5.75;;;;;;;1.86;63.25;102783.91;5045653;28;20085;-68
2023/03/01 09:01:18;;;;;;;7.93;5.82;;;;;;;1.97;62.44;102793.81;5032340;28;20076;-69
2023/03/01 09:03:46;;;;;;;7.07;5.65;;;;;;;2.04;62.07;102784.50;5028299;28;20033;-68
2023/03/01 09:06:15;;;;;;;7.70;5.80;;;;;;;2.12;61.33;102776.16;5028238;28;20038;-69
2023/03/01 09:08:46;;;;;;;8.95;5.65;;;;;;;2.17;61.55;102777.22;5028292;28;20044;-69
2023/03/01 09:11:18;;;;;;;7.38;5.68;;;;;;;2.27;60.84;102787.94;5027069;28;20048;-69
2023/03/01 09:13:47;;;;;;;8.40;6.05;;;;;;;2.37;59.94;102784.84;5027448;28;20030;-68
2023/03/01 09:16:19;;;;;;;8.88;5.43;;;;;;;2.41;59.30;102781.50;5041497;28;20049;-68
2023/03/01 09:18:54;;;;;;;9.75;5.95;;;;;;;2.44;59.32;102768.59;5033556;28;20034;-69
2023/03/01 09:21:23;;;;;;;9.35;5.85;;;;;;;2.46;58.92;102766.03;5043853;28;20038;-69
2023/03/01 09:24:13;;;;;;;7.90;5.80;;;;;;;2.53;59.20;102767.13;5045760;28;20045;-69
2023/03/01 09:26:41;;;;;;;8.80;5.90;;;;;;;2.63;59.10;102774.41;5025856;28;20045;-69
2023/03/01 09:29:09;;;;;;;8.80;5.88;;;;;;;2.72;58.04;102768.63;5041552;28;20049;-69
2023/03/01 09:31:36;;;;;;;8.50;6.03;;;;;;;2.74;58.13;102770.44;5039082;28;20033;-68
2023/03/01 09:34:04;;;;;;;8.85;6.30;;;;;;;2.83;57.96;102769.88;5027085;28;20498;-69
2023/03/01 09:36:32;;;;;;;8.68;6.07;;;;;;;2.89;57.69;102762.25;5029861;28;20506;-69
2023/03/01 09:39:01;;;;;;;10.35;6.30;;;;;;;2.97;57.66;102761.59;5046187;28;20038;-69
2023/03/01 09:42:02;;;;;;;8.73;6.18;;;;;;;3.06;56.89;102757.59;5061247;28;20042;-69
2023/03/01 09:44:49;;;;;;;6.72;5.75;;;;;;;3.11;56.66;102757.72;5045382;28;20554;-69
2023/03/01 09:47:27;;;;;;;8.80;5.53;;;;;;;3.17;56.56;102755.31;5060241;28;20118;-69
2023/03/01 09:50:03;;;;;;;10.27;6.18;;;;;;;3.19;56.03;102745.81;5044693;28;20037;-69
2023/03/01 09:52:42;;;;;;;9.25;6.53;;;;;;;3.23;55.60;102754.59;5059482;28;20125;-69
2023/03/01 09:55:25;;;;;;;9.45;6.35;;;;;;;3.22;56.31;102743.31;5041608;28;20518;-69
2023/03/01 09:58:31;;;;;;;9.23;5.40;;;;;;;3.27;56.15;102738.25;5037274;28;20493;-69
2023/03/01 10:01:18;;;;;;;8.18;5.90;;;;;;;3.36;55.69;102735.00;5034067;28;20041;-69
2023/03/01 10:04:25;;;;;;;11.45;5.75;;;;;;;3.45;55.23;102731.78;5040395;28;20767;-69
2023/03/01 10:07:17;;;;;;;8.15;5.57;;;;;;;3.52;54.44;102726.81;5037598;28;20044;-69
2023/03/01 10:09:46;;;;;;;8.52;6.20;;;;;;;3.57;54.97;102720.00;5041201;28;20084;-69
2023/03/01 10:12:23;;;;;;;8.23;5.85;;;;;;;3.66;54.86;102711.56;5043585;28;20088;-69
2023/03/01 10:15:33;;;;;;;7.90;5.93;;;;;;;3.78;53.39;102718.84;5041907;28;20149;-69
2023/03/01 10:18:12;;;;;;;10.43;5.82;;;;;;;3.83;52.94;102704.22;5014731;28;20053;-69
2023/03/01 10:21:00;;;;;;;8.45;5.78;;;;;;;3.89;52.07;102706.09;5025026;28;20922;-70
2023/03/01 10:23:34;;;;;;;8.00;5.88;;;;;;;3.92;52.80;102700.06;5032753;28;20041;-69
2023/03/01 10:26:26;;;;;;;5.70;5.10;;;;;;;3.98;53.23;102688.09;5045391;28;20052;-69
2023/03/01 10:29:10;;;;;;;7.72;5.30;;;;;;;4.12;51.54;102679.75;5045890;28;20049;-69
2023/03/01 10:31:50;;;;;;;7.95;5.65;;;;;;;4.15;51.61;102683.31;5041380;28;20038;-71
2023/03/01 10:34:31;;;;;;;8.25;5.47;;;;;;;4.20;50.40;102680.81;5039428;28;20045;-69
2023/03/01 10:37:21;;;;;;;8.57;5.25;;;;;;;4.30;49.81;102682.81;5044473;28;20566;-70
2023/03/01 10:40:08;;;;;;;7.20;5.43;;;;;;;4.24;50.63;102685.25;5061410;28;20042;-69
2023/03/01 10:42:47;;;;;;;6.88;5.22;;;;;;;4.31;50.26;102673.25;5044907;28;20069;-69
2023/03/01 10:45:39;;;;;;;8.35;5.60;;;;;;;4.29;50.34;102677.53;5045394;28;20037;-70
2023/03/01 10:48:24;;;;;;;8.75;6.25;;;;;;;4.35;50.24;102669.88;5045059;28;20045;-69
2023/03/01 10:51:07;;;;;;;6.72;4.95;;;;;;;4.39;49.87;102666.47;5045653;28;20045;-71
2023/03/01 10:53:41;;;;;;;12.90;5.95;;;;;;;4.39;50.19;102668.22;5046225;28;20053;-69
2023/03/01 10:56:15;;;;;;;7.13;5.47;;;;;;;4.43;49.54;102670.03;5027904;28;20045;-70
2023/03/01 10:59:02;;;;;;;10.18;5.75;;;;;;;4.44;49.78;102671.81;5042368;28;20042;-70
2023/03/01 11:01:34;;;;;;;10.57;6.22;;;;;;;4.49;49.81;102681.53;5044482;28;20048;-70
2023/03/01 11:04:10;;;;;;;7.65;5.68;;;;;;;4.56;49.94;102682.56;5047609;28;20069;-70
2023/03/01 11:06:41;;;;;;;10.23;5.78;;;;;;;4.71;49.52;102683.78;5046223;28;20133;-70
2023/03/01 11:09:27;;;;;;;8.55;5.93;;;;;;;4.74;49.58;102676.00;5030532;28;20128;-69
2023/03/01 11:11:56;;;;;;;8.10;5.47;;;;;;;4.77;49.70;102670.84;5031651;28;20926;-69
2023/03/01 11:14:30;;;;;;;7.40;5.20;;;;;;;4.84;49.01;102677.97;5047875;28;20053;-69
2023/03/01 11:17:11;;;;;;;7.45;5.13;;;;;;;4.84;48.99;102675.38;5048674;28;20045;-69
2023/03/01 11:19:38;;;;;;;10.43;5.80;;;;;;;4.88;48.54;102671.13;5048865;28;20436;-69
2023/03/01 11:22:21;;;;;;;8.02;5.20;;;;;;;4.88;48.95;102658.06;5047198;28;20068;-69
2023/03/01 11:24:55;;;;;;;8.30;5.50;;;;;;;4.98;48.55;102660.03;5047988;28;20037;-69
2023/03/01 11:27:43;;;;;;;9.20;5.60;;;;;;;5.12;47.82;102660.31;5042096;28;20054;-69
2023/03/01 11:30:32;;;;;;;7.28;5.05;;;;;;;5.10;48.25;102648.94;5028672;28;20048;-69
2023/03/01 11:33:07;;;;;;;7.57;5.38;;;;;;;5.13;48.14;102646.41;5040791;28;20148;-69
2023/03/01 11:35:44;;;;;;;7.47;5.60;;;;;;;5.13;47.61;102649.00;5064895;28;20042;-69
2023/03/01 11:38:22;;;;;;;7.43;5.20;;;;;;;5.14;47.54;102655.97;5048072;28;20100;-69
2023/03/01 11:40:59;;;;;;;7.68;4.95;;;;;;;5.17;47.80;102652.56;5036458;28;20117;-69
2023/03/01 11:43:49;;;;;;;6.70;4.88;;;;;;;5.25;46.94;102658.84;5045199;28;20771;-69
2023/03/01 11:46:36;;;;;;;7.80;5.60;;;;;;;5.33;47.25;102646.81;5038097;28;20042;-69
2023/03/01 11:49:40;;;;;;;12.48;7.97;;;;;;;5.43;47.25;102655.72;5046719;28;20505;-69
2023/03/01 11:53:00;;;;;;;7.25;4.97;;;;;;;5.54;47.11;102648.97;5047227;28;20042;-69